LGSMLGHI

Guest
Details From LGSM - SAMOS
To LGHI - Chios
Flight Number -
Tags generated
Created
Modified
Stats Distance 54 nm / 99 km
Max Altitude 6,000 ft / 1,829 m
Waypoints 3
Social Downloads 0
Likes 0
Share VATSIM

Download

Looking for another format? Having issues loading an existing format? Contact us
Advertisement - Login to hide

Notes

Basic altitude profile: - Ascent Rate: 2500ft/min - Ascent Speed: 250kts - Cruise Altitude: 35000ft - Cruise Speed: 420kts - Descent Rate: 1500ft/min - Descent Speed: 250kts Options: - Use NATs: yes - Use PACOTS: yes - Use low airways: yes - Use high airways: yes

Route

LGSM REDRA LGHI

ID Type Via Altitude Latitude Longitude Leg Dist Tot Dist Heading (true) Name
O LGSM APT - 0 ft / 0 m 37.68901˚ 26.91112˚ - 0 nm - SAMOS
REDRA FIX - 6,000 ft / 1,829 m 37.98222˚ 26.52444˚ 25 nm 25 nm 314° / 314° -
O LGHI APT - 0 ft / 0 m 38.34318˚ 26.14058˚ 28 nm 53 nm 320° / 320° Chios

Altitude Profile

Advertisement - Login to hide

LGSM

Details ICAO LGSM (SMI)
Name SAMOS
Region Greece
Timezone Europe/Athens (UTC+2.0)
Stats Elevation 19 ft / 6 m (AMSL)
Location 37.689012° 26.911123°
Runways 1
Magnetic Variation 4.800° E

METAR

LGSM 110920Z 22013KT 9999 FEW018 SCT025 18/12 Q1024

Decode

TAF

Not found

Departure Runways

ID Width Length Bearing (true) Bearing (mag) Surface Threshold Offset Overrun Length
09 148 ft / 45 m 6,690 ft / 2,039 m 94.02° 89.22° Asphalt 230 ft / 70 m 0 ft / 0 m
27 148 ft / 45 m 6,690 ft / 2,039 m 274.03° 269.23° Asphalt 0 ft / 0 m 0 ft / 0 m

LGHI

Details ICAO LGHI (JKH)
Name Chios
Region Greece
Timezone Europe/Athens (UTC+2.0)
Stats Elevation 18 ft / 5 m (AMSL)
Location 38.343175° 26.140575°
Runways 1
Magnetic Variation 4.787° E

METAR

LGHI 110850Z 19013KT 9999 SCT025 17/06 Q1023

Decode

TAF

Not found

Destination Runways

ID Width Length Bearing (true) Bearing (mag) Surface Threshold Offset Overrun Length
01 98 ft / 30 m 4,966 ft / 1,514 m 9.51° 4.72° Asphalt 393 ft / 120 m 0 ft / 0 m
19 98 ft / 30 m 4,966 ft / 1,514 m 189.51° 184.72° Asphalt 262 ft / 80 m 0 ft / 0 m